This is the latest recevied weather packets stored in our database for station/object K5NWZ. If no packets are shown the sender has not sent any weather packets the latest 10 day(s).
| Time | Temp. | Humidity | Pressure | Rain* | Wind** | Luminosity | Snow |
|---|---|---|---|---|---|---|---|
| 1787851274 | 26.67° C | 48% | 1032.9 hPa | 0 mm | - | 585 W/m² | - |
| 1787850969 | 26.67° C | 50% | 1032.5 hPa | 0 mm | - | 599 W/m² | - |
| 1787850665 | 26.67° C | 48% | 1032.7 hPa | 0 mm | - | 621 W/m² | - |
| 1787850361 | 25.56° C | 51% | 1032.9 hPa | 0 mm | - | 611 W/m² | - |
| 1787850051 | 25.56° C | 52% | 1033 hPa | 0 mm | - | 604 W/m² | - |
| 1787849750 | 25.56° C | 51% | 1032.7 hPa | 0 mm | - | 592 W/m² | - |
| 1787849445 | 25.56° C | 53% | 1033.2 hPa | 0 mm | - | 581 W/m² | - |
| 1787849143 | 25° C | 53% | 1033.2 hPa | 0 mm | - | 571 W/m² | - |
| 1787848838 | 25.56° C | 53% | 1033.1 hPa | 0 mm | - | 561 W/m² | - |
| 1787848537 | 25° C | 53% | 1033.1 hPa | 0 mm | - | 548 W/m² | - |
| 1787848226 | 23.89° C | 56% | 1033 hPa | 0 mm | - | 539 W/m² | - |
| 1787847921 | 23.89° C | 56% | 1033 hPa | 0 mm | - | 527 W/m² | - |
| 1787847620 | 23.33° C | 57% | 1033.1 hPa | 0 mm | - | 515 W/m² | - |
| 1787847316 | 22.78° C | 58% | 1033.1 hPa | 0 mm | - | 503 W/m² | - |
| 1787847012 | 23.89° C | 57% | 1033.2 hPa | 0 mm | - | 491 W/m² | - |
| 1787846712 | 22.78° C | 58% | 1033 hPa | 0 mm | - | 482 W/m² | - |
| 1787846408 | 22.78° C | 60% | 1033 hPa | 0 mm | - | 468 W/m² | - |
| 1787846104 | 21.67° C | 60% | 1032.9 hPa | 0 mm | - | 456 W/m² | - |
| 1787845799 | 21.67° C | 62% | 1033 hPa | 0 mm | - | 443 W/m² | - |
| 1787845494 | 22.22° C | 62% | 1033.1 hPa | 0 mm | - | 429 W/m² | - |
| 1787845190 | 22.22° C | 61% | 1033.1 hPa | 0 mm | - | 414 W/m² | - |
| 1787844885 | 21.67° C | 63% | 1033.2 hPa | 0 mm | - | 401 W/m² | - |
| 1787844584 | 21.11° C | 64% | 1033 hPa | 0 mm | - | 388 W/m² | - |
| 1787844280 | 21.11° C | 64% | 1033 hPa | 0 mm | - | 375 W/m² | - |
| 1787843978 | 21.67° C | 63% | 1033.1 hPa | 0 mm | - | 358 W/m² | - |
* Rain latest hour (hover to see other rain measurements)
** Current wind speed in m/s (hover to see current wind gust speed)